createdAt,value
2018-07-26T00:00:14.655Z,7.93
2018-07-26T00:00:45.871Z,8.17
2018-07-26T00:01:17.036Z,8.27
2018-07-26T00:01:48.174Z,8.03
2018-07-26T00:02:20.327Z,8.30
2018-07-26T00:02:51.599Z,7.90
2018-07-26T00:03:22.822Z,8.67
2018-07-26T00:03:54.073Z,9.13
2018-07-26T00:04:25.275Z,8.47
2018-07-26T00:04:56.375Z,8.40
2018-07-26T00:05:27.483Z,7.67
2018-07-26T00:05:58.600Z,8.17
2018-07-26T00:06:29.711Z,8.27
2018-07-26T00:07:00.815Z,7.53
2018-07-26T00:07:32.051Z,8.73
2018-07-26T00:08:03.204Z,8.70
2018-07-26T00:08:34.398Z,8.60
2018-07-26T00:09:05.533Z,8.80
2018-07-26T00:09:36.685Z,8.80
2018-07-26T00:10:07.825Z,8.43
2018-07-26T00:10:38.941Z,8.17
2018-07-26T00:11:10.057Z,8.47
2018-07-26T00:11:41.251Z,8.43
2018-07-26T00:12:12.427Z,8.80
2018-07-26T00:12:43.540Z,8.83
2018-07-26T00:13:14.666Z,9.10
2018-07-26T00:13:45.828Z,8.77
2018-07-26T00:14:16.948Z,8.23
2018-07-26T00:14:48.101Z,8.87
2018-07-26T00:15:19.224Z,8.57
2018-07-26T00:15:50.339Z,8.93
2018-07-26T00:16:21.453Z,9.30
2018-07-26T00:16:52.566Z,9.37
2018-07-26T00:17:24.914Z,9.13
2018-07-26T00:17:56.024Z,8.80
2018-07-26T00:18:27.231Z,8.93
2018-07-26T00:18:58.388Z,8.90
2018-07-26T00:19:29.495Z,9.20
2018-07-26T00:20:00.603Z,9.57
2018-07-26T00:20:31.721Z,8.93
2018-07-26T00:21:02.869Z,9.43
2018-07-26T00:21:34.077Z,9.43
2018-07-26T00:22:05.218Z,9.33
2018-07-26T00:22:36.327Z,9.47
2018-07-26T00:23:07.497Z,9.77
2018-07-26T00:23:38.624Z,9.23
2018-07-26T00:24:09.749Z,9.57
2018-07-26T00:24:40.855Z,9.97
2018-07-26T00:25:11.994Z,10.63
2018-07-26T00:25:43.099Z,9.87
2018-07-26T00:26:14.228Z,10.63
2018-07-26T00:26:45.345Z,9.83
2018-07-26T00:27:16.455Z,10.47
2018-07-26T00:27:47.572Z,9.87
2018-07-26T00:28:18.734Z,11.10
2018-07-26T00:28:49.840Z,9.93
2018-07-26T00:29:20.967Z,9.83
2018-07-26T00:29:52.121Z,10.73
2018-07-26T00:30:23.265Z,10.37
2018-07-26T00:30:54.427Z,10.63
2018-07-26T00:31:25.544Z,10.50
2018-07-26T00:31:56.672Z,9.90
2018-07-26T00:32:27.888Z,9.53
2018-07-26T00:32:58.997Z,9.70
2018-07-26T00:33:30.111Z,10.60
2018-07-26T00:34:01.226Z,10.57
2018-07-26T00:34:32.343Z,10.10
2018-07-26T00:35:03.461Z,9.40
2018-07-26T00:35:34.623Z,10.00
2018-07-26T00:36:05.747Z,9.77
2018-07-26T00:36:36.903Z,10.20
2018-07-26T00:37:08.015Z,11.03
2018-07-26T00:37:39.131Z,10.27
2018-07-26T00:38:10.242Z,10.10
2018-07-26T00:38:41.372Z,10.13
2018-07-26T00:39:12.486Z,10.40
2018-07-26T00:39:43.614Z,10.03
2018-07-26T00:40:14.731Z,10.77
2018-07-26T00:40:45.845Z,9.47
2018-07-26T00:41:16.970Z,10.73
2018-07-26T00:41:48.136Z,10.63
2018-07-26T00:42:19.251Z,9.47
2018-07-26T00:42:50.366Z,9.83
2018-07-26T00:43:21.488Z,9.70
2018-07-26T00:43:52.699Z,9.10
2018-07-26T00:44:23.812Z,9.77
2018-07-26T00:44:54.923Z,10.23
2018-07-26T00:45:26.069Z,8.77
2018-07-26T00:45:58.261Z,9.83
2018-07-26T00:46:29.363Z,9.00
2018-07-26T00:47:00.533Z,9.47
2018-07-26T00:47:31.667Z,9.83
2018-07-26T00:48:02.779Z,10.03
2018-07-26T00:48:33.985Z,9.40
2018-07-26T00:49:05.096Z,9.57
2018-07-26T00:49:36.400Z,10.00
2018-07-26T00:50:07.521Z,10.33
2018-07-26T00:50:38.636Z,8.63
2018-07-26T00:51:09.762Z,10.33
2018-07-26T00:51:40.929Z,9.27
2018-07-26T00:52:12.085Z,10.07
2018-07-26T00:52:43.253Z,9.40
2018-07-26T00:53:14.399Z,9.70
2018-07-26T00:53:45.587Z,9.80
2018-07-26T00:54:16.696Z,10.17
2018-07-26T00:54:47.808Z,10.63
2018-07-26T00:55:19.075Z,9.73
2018-07-26T00:55:50.216Z,9.57
2018-07-26T00:56:21.360Z,9.87
2018-07-26T00:56:52.527Z,9.83
2018-07-26T00:57:23.769Z,9.90
2018-07-26T00:57:54.908Z,9.53
2018-07-26T00:58:26.037Z,9.10
2018-07-26T00:58:57.190Z,9.47
2018-07-26T00:59:28.307Z,9.93
2018-07-26T00:59:59.500Z,10.03
2018-07-26T01:00:30.728Z,9.53
2018-07-26T01:01:01.845Z,9.83
2018-07-26T01:01:33.044Z,10.50
2018-07-26T01:02:05.200Z,10.67
2018-07-26T01:02:36.349Z,9.67
2018-07-26T01:03:07.572Z,9.27
2018-07-26T01:03:38.695Z,9.30
2018-07-26T01:04:09.893Z,9.23
2018-07-26T01:04:41.140Z,10.10
2018-07-26T01:05:12.271Z,10.10
2018-07-26T01:05:43.407Z,9.40
2018-07-26T01:06:14.579Z,10.27
2018-07-26T01:06:45.683Z,9.40
2018-07-26T01:07:16.852Z,9.83
2018-07-26T01:07:48.035Z,10.20
2018-07-26T01:08:19.258Z,10.00
2018-07-26T01:08:50.397Z,9.87
2018-07-26T01:09:21.656Z,9.83
2018-07-26T01:09:52.821Z,10.37
2018-07-26T01:10:23.975Z,9.23
2018-07-26T01:10:55.212Z,10.00
2018-07-26T01:11:26.449Z,9.93
2018-07-26T01:11:57.560Z,9.40
2018-07-26T01:12:28.754Z,10.10
2018-07-26T01:12:59.977Z,9.80
2018-07-26T01:13:31.093Z,9.23
2018-07-26T01:14:02.199Z,9.87
2018-07-26T01:14:33.320Z,10.27
2018-07-26T01:15:04.506Z,9.90
2018-07-26T01:15:35.640Z,9.80
2018-07-26T01:16:06.756Z,10.43
2018-07-26T01:16:37.920Z,9.43
2018-07-26T01:17:09.050Z,9.73
2018-07-26T01:17:40.197Z,9.73
2018-07-26T01:18:11.318Z,9.70
2018-07-26T01:18:42.466Z,9.77
2018-07-26T01:19:13.704Z,10.10
2018-07-26T01:19:44.893Z,9.90
2018-07-26T01:20:16.065Z,9.77
2018-07-26T01:20:47.263Z,9.33
2018-07-26T01:21:18.385Z,10.83
2018-07-26T01:21:49.596Z,10.43
2018-07-26T01:22:20.731Z,9.70
2018-07-26T01:22:51.856Z,9.87
2018-07-26T01:23:23.027Z,10.23
2018-07-26T01:23:54.264Z,10.30
2018-07-26T01:24:25.404Z,10.20
2018-07-26T01:24:56.613Z,10.50
2018-07-26T01:25:27.719Z,10.43
2018-07-26T01:25:58.958Z,9.83
2018-07-26T01:26:30.072Z,10.07
2018-07-26T01:27:01.229Z,10.10
2018-07-26T01:27:32.425Z,10.73
2018-07-26T01:28:03.605Z,10.13
2018-07-26T01:28:35.860Z,9.77
2018-07-26T01:29:07.080Z,9.50
2018-07-26T01:29:38.249Z,9.60
2018-07-26T01:30:09.439Z,10.03
2018-07-26T01:30:40.542Z,9.53
2018-07-26T01:31:11.695Z,9.87
2018-07-26T01:31:42.832Z,10.53
2018-07-26T01:32:13.984Z,9.83
2018-07-26T01:32:45.201Z,9.70
2018-07-26T01:33:16.453Z,9.93
2018-07-26T01:33:47.676Z,10.17
2018-07-26T01:34:19.766Z,9.57
2018-07-26T01:34:50.941Z,9.47
2018-07-26T01:35:22.157Z,9.50
2018-07-26T01:35:53.332Z,9.90
2018-07-26T01:36:24.472Z,9.67
2018-07-26T01:36:55.814Z,9.10
2018-07-26T01:37:26.926Z,10.40
2018-07-26T01:37:58.141Z,9.60
2018-07-26T01:38:29.268Z,10.17
2018-07-26T01:39:00.436Z,9.70
2018-07-26T01:39:31.674Z,9.43
2018-07-26T01:40:02.816Z,9.70
2018-07-26T01:40:33.937Z,10.40
2018-07-26T01:41:05.051Z,9.87
2018-07-26T01:41:36.229Z,10.40
2018-07-26T01:42:07.409Z,9.93
2018-07-26T01:42:38.523Z,10.13
2018-07-26T01:43:09.736Z,10.13
2018-07-26T01:43:41.079Z,9.67
2018-07-26T01:44:12.200Z,10.13
2018-07-26T01:44:43.311Z,10.77
2018-07-26T01:45:14.419Z,9.87
2018-07-26T01:45:45.533Z,10.40
2018-07-26T01:46:16.764Z,9.70
2018-07-26T01:46:47.893Z,10.07
2018-07-26T01:47:19.158Z,10.73
2018-07-26T01:47:50.292Z,11.13
2018-07-26T01:48:21.448Z,10.87
2018-07-26T01:48:52.627Z,10.40
2018-07-26T01:49:23.970Z,10.30
2018-07-26T01:49:55.197Z,10.23
2018-07-26T01:50:26.383Z,11.20
2018-07-26T01:50:57.609Z,10.23
2018-07-26T01:51:28.828Z,10.63
2018-07-26T01:52:00.061Z,11.00
2018-07-26T01:52:31.313Z,10.60
2018-07-26T01:53:02.529Z,11.17
2018-07-26T01:53:33.763Z,10.93
2018-07-26T01:54:04.919Z,10.17
2018-07-26T01:54:36.083Z,11.17
2018-07-26T01:55:07.257Z,10.57
2018-07-26T01:55:38.408Z,11.10
2018-07-26T01:56:09.523Z,10.43
2018-07-26T01:56:40.697Z,10.60
2018-07-26T01:57:11.955Z,10.77
2018-07-26T01:57:43.140Z,11.17
2018-07-26T01:58:14.328Z,10.53
2018-07-26T01:58:45.592Z,10.27
2018-07-26T01:59:16.800Z,11.10
2018-07-26T01:59:48.052Z,10.73
2018-07-26T02:00:19.167Z,10.87
2018-07-26T02:00:50.329Z,11.03
2018-07-26T02:01:21.508Z,10.33
2018-07-26T02:01:52.628Z,11.00
2018-07-26T02:02:23.887Z,10.47
2018-07-26T02:02:55.043Z,11.37
2018-07-26T02:03:26.336Z,11.30
2018-07-26T02:03:57.456Z,11.20
2018-07-26T02:04:28.703Z,11.20
2018-07-26T02:05:00.010Z,11.20
2018-07-26T02:05:31.236Z,10.97
2018-07-26T02:06:02.394Z,10.70
2018-07-26T02:06:33.604Z,11.03
2018-07-26T02:07:04.741Z,11.13
2018-07-26T02:07:35.912Z,11.20
2018-07-26T02:08:07.021Z,11.27
2018-07-26T02:08:38.177Z,10.80
2018-07-26T02:09:09.323Z,10.43
2018-07-26T02:09:40.557Z,10.33
2018-07-26T02:10:11.787Z,10.50
2018-07-26T02:10:42.936Z,10.40
2018-07-26T02:11:14.140Z,10.30
2018-07-26T02:11:45.324Z,10.50
2018-07-26T02:12:16.428Z,10.43
2018-07-26T02:12:47.582Z,10.37
2018-07-26T02:13:18.784Z,9.73
2018-07-26T02:13:49.934Z,10.13
2018-07-26T02:14:21.116Z,10.43
2018-07-26T02:14:52.249Z,10.67
2018-07-26T02:15:23.414Z,10.50
2018-07-26T02:15:54.548Z,10.27
2018-07-26T02:16:25.712Z,9.83
2018-07-26T02:16:56.835Z,10.40
2018-07-26T02:17:27.990Z,9.73
2018-07-26T02:17:59.252Z,10.50
2018-07-26T02:18:30.486Z,10.20
2018-07-26T02:19:01.614Z,10.37
2018-07-26T02:19:32.794Z,9.90
2018-07-26T02:20:03.918Z,10.07
2018-07-26T02:20:35.077Z,11.20
2018-07-26T02:21:06.199Z,10.40
2018-07-26T02:21:37.469Z,10.60
2018-07-26T02:22:08.597Z,11.13
2018-07-26T02:22:39.869Z,10.73
2018-07-26T02:23:11.098Z,9.60
2018-07-26T02:23:42.299Z,10.83
2018-07-26T02:24:13.428Z,10.17
2018-07-26T02:24:44.591Z,10.57
2018-07-26T02:25:15.813Z,10.57
2018-07-26T02:25:46.933Z,10.53
2018-07-26T02:26:18.072Z,10.60
2018-07-26T02:26:49.175Z,10.43
2018-07-26T02:27:20.380Z,10.53
2018-07-26T02:27:51.495Z,10.70
2018-07-26T02:28:22.607Z,11.13
2018-07-26T02:28:53.722Z,10.90
2018-07-26T02:29:24.887Z,10.87
2018-07-26T02:29:56.012Z,10.97
2018-07-26T02:30:27.127Z,10.47
2018-07-26T02:30:58.260Z,11.37
2018-07-26T02:31:29.433Z,10.90
2018-07-26T02:32:00.613Z,11.00
2018-07-26T02:32:31.948Z,11.67
2018-07-26T02:33:03.127Z,11.63
2018-07-26T02:33:34.302Z,11.47
2018-07-26T02:34:05.481Z,11.70
2018-07-26T02:34:36.639Z,11.33
2018-07-26T02:35:07.748Z,11.73
2018-07-26T02:35:38.864Z,11.57
2018-07-26T02:36:10.072Z,11.17
2018-07-26T02:36:41.312Z,11.20
2018-07-26T02:37:12.472Z,10.77
2018-07-26T02:37:43.583Z,11.63
2018-07-26T02:38:14.749Z,11.07
2018-07-26T02:38:45.880Z,11.07
2018-07-26T02:39:17.457Z,12.03
2018-07-26T02:39:48.591Z,11.20
2018-07-26T02:40:19.719Z,12.13
2018-07-26T02:40:50.830Z,12.03
2018-07-26T02:41:22.008Z,11.23
2018-07-26T02:41:53.196Z,10.83
2018-07-26T02:42:24.496Z,11.17
2018-07-26T02:42:55.618Z,12.27
2018-07-26T02:43:26.735Z,11.10
2018-07-26T02:43:57.864Z,10.40
2018-07-26T02:44:29.115Z,10.60
2018-07-26T02:45:00.247Z,11.10
2018-07-26T02:45:31.394Z,11.37
2018-07-26T02:46:02.569Z,11.30
2018-07-26T02:46:33.752Z,11.07
2018-07-26T02:47:04.929Z,10.80
2018-07-26T02:47:36.547Z,10.70
2018-07-26T02:48:07.658Z,11.33
2018-07-26T02:48:38.774Z,10.87
2018-07-26T02:49:09.883Z,10.90
2018-07-26T02:49:41.200Z,11.47
2018-07-26T02:50:12.376Z,10.80
2018-07-26T02:50:43.657Z,11.40
2018-07-26T02:51:14.945Z,11.53
2018-07-26T02:51:46.067Z,11.17
2018-07-26T02:52:17.372Z,11.17
2018-07-26T02:52:48.497Z,11.43
2018-07-26T02:53:19.605Z,12.20
2018-07-26T02:53:50.752Z,11.57
2018-07-26T02:54:21.917Z,12.43
2018-07-26T02:54:53.128Z,11.93
2018-07-26T02:55:24.254Z,12.47
2018-07-26T02:55:55.436Z,11.60
2018-07-26T02:56:26.618Z,10.77
2018-07-26T02:56:57.825Z,11.30
2018-07-26T02:57:29.008Z,11.37
2018-07-26T02:58:00.140Z,11.33
2018-07-26T02:58:31.337Z,11.90
2018-07-26T02:59:02.513Z,10.77
2018-07-26T02:59:33.640Z,10.37
2018-07-26T03:00:04.950Z,11.97
2018-07-26T03:00:36.089Z,11.77
2018-07-26T03:01:07.200Z,10.73
2018-07-26T03:01:38.319Z,11.27
2018-07-26T03:02:09.426Z,11.07
2018-07-26T03:02:40.847Z,11.83
2018-07-26T03:03:12.015Z,11.80
2018-07-26T03:03:43.182Z,12.23
2018-07-26T03:04:15.084Z,11.83
2018-07-26T03:04:46.358Z,12.23
2018-07-26T03:05:17.552Z,10.70
2018-07-26T03:05:48.721Z,11.47
2018-07-26T03:06:19.845Z,10.97
2018-07-26T03:06:51.008Z,11.40
2018-07-26T03:07:22.184Z,11.43
2018-07-26T03:07:53.346Z,12.43
2018-07-26T03:08:24.610Z,11.57
2018-07-26T03:08:55.885Z,11.27
2018-07-26T03:09:27.090Z,11.37
2018-07-26T03:09:58.234Z,11.20
2018-07-26T03:10:29.368Z,12.27
2018-07-26T03:11:00.594Z,11.67
2018-07-26T03:11:31.720Z,11.00
2018-07-26T03:12:02.830Z,11.27
2018-07-26T03:12:34.068Z,11.53
2018-07-26T03:13:05.239Z,11.43
2018-07-26T03:13:36.622Z,11.80
2018-07-26T03:14:07.813Z,11.10
2018-07-26T03:14:39.038Z,12.43
2018-07-26T03:15:10.225Z,9.93
2018-07-26T03:15:41.340Z,11.87
2018-07-26T03:16:12.513Z,12.00
2018-07-26T03:16:43.943Z,10.30
2018-07-26T03:17:15.116Z,11.53
2018-07-26T03:17:46.264Z,12.47
2018-07-26T03:18:17.437Z,11.40
2018-07-26T03:18:48.630Z,11.10
2018-07-26T03:19:19.749Z,11.30
2018-07-26T03:19:50.856Z,10.67
2018-07-26T03:20:21.981Z,11.10
2018-07-26T03:20:53.165Z,11.03
2018-07-26T03:21:24.301Z,11.17
2018-07-26T03:21:55.524Z,10.83
2018-07-26T03:22:26.643Z,11.17
2018-07-26T03:22:58.703Z,11.67
2018-07-26T03:23:29.937Z,10.60
2018-07-26T03:24:01.987Z,11.27
2018-07-26T03:24:33.112Z,10.67
2018-07-26T03:25:04.287Z,10.87
2018-07-26T03:25:35.467Z,10.70
2018-07-26T03:26:06.673Z,10.90
2018-07-26T03:26:37.905Z,10.57
2018-07-26T03:27:09.136Z,10.57
2018-07-26T03:27:40.422Z,10.53
2018-07-26T03:28:11.607Z,9.73
2018-07-26T03:28:42.781Z,10.93
2018-07-26T03:29:13.899Z,10.73
2018-07-26T03:29:45.016Z,10.80
2018-07-26T03:30:16.155Z,10.50
2018-07-26T03:30:47.325Z,10.50
2018-07-26T03:31:18.523Z,10.83
2018-07-26T03:31:49.805Z,11.00
2018-07-26T03:32:20.950Z,10.37
2018-07-26T03:32:52.063Z,10.77
2018-07-26T03:33:23.244Z,10.10
2018-07-26T03:33:54.563Z,10.80
2018-07-26T03:34:25.821Z,10.73
2018-07-26T03:34:57.060Z,11.03
2018-07-26T03:35:28.197Z,10.30
2018-07-26T03:35:59.372Z,11.07
2018-07-26T03:36:30.596Z,10.50
2018-07-26T03:37:01.719Z,10.70
2018-07-26T03:37:32.901Z,10.60
2018-07-26T03:38:04.078Z,10.33
2018-07-26T03:38:35.192Z,10.90
2018-07-26T03:39:06.376Z,11.17
2018-07-26T03:39:37.503Z,9.63
2018-07-26T03:40:08.685Z,11.30
2018-07-26T03:40:39.808Z,10.87
2018-07-26T03:41:10.982Z,10.77
2018-07-26T03:41:42.097Z,10.10
2018-07-26T03:42:13.267Z,10.80
2018-07-26T03:42:44.456Z,11.17
2018-07-26T03:43:15.690Z,11.30
2018-07-26T03:43:46.869Z,10.50
2018-07-26T03:44:17.997Z,10.80
2018-07-26T03:44:49.115Z,10.70
2018-07-26T03:45:20.232Z,11.07
2018-07-26T03:45:51.367Z,10.17
2018-07-26T03:46:22.542Z,10.70
2018-07-26T03:46:53.718Z,10.27
2018-07-26T03:47:24.872Z,10.97
2018-07-26T03:47:56.106Z,10.87
2018-07-26T03:48:27.291Z,10.20
2018-07-26T03:48:58.407Z,10.70
2018-07-26T03:49:29.649Z,10.70
2018-07-26T03:50:00.822Z,9.97
2018-07-26T03:50:32.032Z,10.33
2018-07-26T03:51:03.256Z,11.00
2018-07-26T03:51:34.452Z,10.63
2018-07-26T03:52:05.627Z,11.20
2018-07-26T03:52:36.887Z,11.33
2018-07-26T03:53:08.107Z,10.37
2018-07-26T03:53:39.340Z,10.87
2018-07-26T03:54:10.461Z,10.60
2018-07-26T03:54:41.625Z,10.77
2018-07-26T03:55:12.749Z,10.87
2018-07-26T03:55:43.942Z,10.43
2018-07-26T03:56:15.152Z,10.83
2018-07-26T03:56:46.334Z,11.20
2018-07-26T03:57:17.673Z,11.13
2018-07-26T03:57:48.891Z,10.50
2018-07-26T03:58:20.085Z,10.93
2018-07-26T03:58:51.272Z,10.60
2018-07-26T03:59:22.557Z,10.03
2018-07-26T03:59:53.754Z,11.07
2018-07-26T04:00:24.872Z,10.17
2018-07-26T04:00:56.041Z,10.20
2018-07-26T04:01:27.243Z,10.10
2018-07-26T04:01:58.476Z,10.20
2018-07-26T04:02:29.646Z,10.03
2018-07-26T04:03:00.904Z,9.87
2018-07-26T04:03:32.025Z,10.23
2018-07-26T04:04:03.202Z,10.50
2018-07-26T04:04:34.372Z,10.47
2018-07-26T04:05:05.549Z,10.80
2018-07-26T04:05:36.768Z,9.80
2018-07-26T04:06:07.940Z,10.63
2018-07-26T04:06:39.229Z,9.97
2018-07-26T04:07:10.352Z,10.50
2018-07-26T04:07:41.477Z,10.13
2018-07-26T04:08:12.684Z,10.27
2018-07-26T04:08:43.860Z,10.73
2018-07-26T04:09:15.089Z,9.40
2018-07-26T04:09:46.256Z,9.97
2018-07-26T04:10:17.434Z,10.27
2018-07-26T04:10:48.562Z,10.07
2018-07-26T04:11:19.794Z,9.70
2018-07-26T04:11:51.048Z,9.80
2018-07-26T04:12:22.617Z,10.03
2018-07-26T04:12:53.776Z,10.13
2018-07-26T04:13:24.936Z,9.97
2018-07-26T04:13:56.121Z,10.57
2018-07-26T04:14:27.343Z,10.20
2018-07-26T04:14:58.459Z,10.70
2018-07-26T04:15:29.677Z,11.03
2018-07-26T04:16:00.860Z,10.23
2018-07-26T04:16:31.993Z,10.20
2018-07-26T04:17:03.162Z,10.07
2018-07-26T04:17:34.352Z,10.40
2018-07-26T04:18:05.580Z,10.47
2018-07-26T04:18:36.792Z,10.57
2018-07-26T04:19:07.965Z,9.90
2018-07-26T04:19:39.229Z,9.80
2018-07-26T04:20:10.455Z,11.00
2018-07-26T04:20:41.619Z,10.33
2018-07-26T04:21:12.829Z,10.47
2018-07-26T04:21:44.001Z,10.10
2018-07-26T04:22:15.183Z,10.43
2018-07-26T04:22:46.292Z,10.30
2018-07-26T04:23:17.549Z,10.17
2018-07-26T04:23:48.718Z,10.10
2018-07-26T04:24:19.875Z,10.17
2018-07-26T04:24:51.007Z,10.70
2018-07-26T04:25:22.229Z,10.23
2018-07-26T04:25:53.354Z,10.83
2018-07-26T04:26:24.463Z,10.53
2018-07-26T04:26:55.612Z,9.80
2018-07-26T04:27:26.813Z,9.77
2018-07-26T04:27:57.981Z,9.60
2018-07-26T04:28:29.089Z,10.23
2018-07-26T04:29:00.204Z,9.43
2018-07-26T04:29:31.307Z,10.17
2018-07-26T04:30:02.489Z,9.73
2018-07-26T04:30:33.611Z,10.17
2018-07-26T04:31:04.835Z,9.73
2018-07-26T04:31:36.021Z,9.23
2018-07-26T04:32:07.221Z,9.03
2018-07-26T04:32:38.386Z,9.50
2018-07-26T04:33:09.577Z,9.37
2018-07-26T04:33:40.690Z,10.37
2018-07-26T04:34:11.843Z,9.33
2018-07-26T04:34:43.034Z,10.47
2018-07-26T04:35:14.281Z,9.93
2018-07-26T04:35:45.392Z,9.53
2018-07-26T04:36:16.544Z,10.37
2018-07-26T04:36:47.738Z,9.83
2018-07-26T04:37:18.931Z,9.37
2018-07-26T04:37:50.197Z,10.17
2018-07-26T04:38:21.384Z,10.00
2018-07-26T04:38:52.544Z,9.80
2018-07-26T04:39:23.757Z,9.20
2018-07-26T04:39:54.880Z,9.27
2018-07-26T04:40:26.067Z,9.80
2018-07-26T04:40:57.233Z,9.67
2018-07-26T04:41:28.359Z,9.50
2018-07-26T04:41:59.475Z,10.37
2018-07-26T04:42:30.629Z,8.93
2018-07-26T04:43:01.880Z,10.00
2018-07-26T04:43:33.038Z,9.63
2018-07-26T04:44:04.203Z,9.33
2018-07-26T04:44:35.389Z,10.27
2018-07-26T04:45:06.618Z,9.97
2018-07-26T04:45:37.825Z,9.77
2018-07-26T04:46:08.938Z,10.30
2018-07-26T04:46:40.065Z,10.00
2018-07-26T04:47:11.176Z,9.30
2018-07-26T04:47:42.288Z,9.30
2018-07-26T04:48:13.505Z,10.10
2018-07-26T04:48:44.633Z,9.37
2018-07-26T04:49:15.802Z,9.90
2018-07-26T04:49:46.916Z,9.57
2018-07-26T04:50:18.028Z,9.67
2018-07-26T04:50:49.194Z,9.67
2018-07-26T04:51:20.380Z,10.53
2018-07-26T04:51:51.558Z,10.03
2018-07-26T04:52:22.732Z,9.27
2018-07-26T04:52:53.888Z,9.13
2018-07-26T04:53:25.098Z,9.30
2018-07-26T04:53:56.275Z,9.43
2018-07-26T04:54:27.464Z,9.70
2018-07-26T04:54:58.679Z,9.83
2018-07-26T04:55:29.804Z,10.60
2018-07-26T04:56:00.991Z,9.97
2018-07-26T04:56:32.160Z,9.90
2018-07-26T04:57:03.284Z,9.50
2018-07-26T04:57:34.403Z,10.57
2018-07-26T04:58:05.555Z,10.83
2018-07-26T04:58:36.724Z,10.67
2018-07-26T04:59:07.843Z,10.13
2018-07-26T04:59:38.959Z,10.37
2018-07-26T05:00:10.198Z,10.13
2018-07-26T05:00:41.382Z,10.13
2018-07-26T05:01:12.576Z,10.30
2018-07-26T05:01:43.688Z,10.17
2018-07-26T05:02:14.813Z,10.00
2018-07-26T05:02:45.970Z,10.53
2018-07-26T05:03:17.200Z,10.43
2018-07-26T05:03:48.404Z,10.97
2018-07-26T05:04:19.510Z,10.07
2018-07-26T05:04:50.619Z,9.83
2018-07-26T05:05:21.797Z,10.00
2018-07-26T05:05:52.936Z,11.07
2018-07-26T05:06:24.069Z,10.10
2018-07-26T05:06:55.187Z,10.87
2018-07-26T05:07:26.416Z,10.63
2018-07-26T05:07:57.632Z,10.50
2018-07-26T05:08:28.865Z,11.40
2018-07-26T05:09:00.062Z,10.33
2018-07-26T05:09:31.244Z,9.93
2018-07-26T05:10:02.417Z,10.97
2018-07-26T05:10:33.589Z,11.30
2018-07-26T05:11:04.777Z,10.23
2018-07-26T05:11:36.021Z,10.83
2018-07-26T05:12:07.211Z,10.73
2018-07-26T05:12:38.397Z,11.03
2018-07-26T05:13:09.601Z,10.40
2018-07-26T05:13:40.771Z,9.90
2018-07-26T05:14:11.898Z,11.03
2018-07-26T05:14:43.077Z,10.73
2018-07-26T05:15:14.187Z,11.00
2018-07-26T05:15:45.348Z,10.37
2018-07-26T05:16:16.467Z,10.60
2018-07-26T05:16:47.664Z,10.73
2018-07-26T05:17:19.300Z,9.90
2018-07-26T05:17:50.517Z,10.20
2018-07-26T05:18:21.649Z,10.30
2018-07-26T05:18:52.902Z,10.23
2018-07-26T05:19:24.157Z,10.37
2018-07-26T05:19:55.377Z,9.87
2018-07-26T05:20:26.510Z,10.23
2018-07-26T05:20:57.700Z,10.40
2018-07-26T05:21:28.906Z,9.87
2018-07-26T05:22:00.080Z,11.57
2018-07-26T05:22:31.259Z,10.23
2018-07-26T05:23:02.498Z,10.10
2018-07-26T05:23:33.632Z,10.20
2018-07-26T05:24:04.865Z,10.63
2018-07-26T05:24:36.081Z,10.53
2018-07-26T05:25:07.209Z,9.90
2018-07-26T05:25:38.335Z,10.40
2018-07-26T05:26:09.456Z,10.40
2018-07-26T05:26:40.583Z,10.27
2018-07-26T05:27:11.806Z,10.27
2018-07-26T05:27:43.247Z,10.10
2018-07-26T05:28:14.357Z,10.97
2018-07-26T05:28:45.481Z,10.37
2018-07-26T05:29:16.707Z,10.53
2018-07-26T05:29:47.960Z,10.63
2018-07-26T05:30:19.140Z,11.17
2018-07-26T05:30:50.419Z,10.43
2018-07-26T05:31:21.608Z,10.90
2018-07-26T05:31:52.793Z,9.97
2018-07-26T05:32:23.985Z,9.23
2018-07-26T05:32:55.110Z,10.73
2018-07-26T05:33:26.302Z,10.70
2018-07-26T05:33:57.422Z,10.17
2018-07-26T05:34:28.609Z,9.73
2018-07-26T05:34:59.877Z,10.53
2018-07-26T05:35:31.124Z,9.83
2018-07-26T05:36:02.325Z,9.80
2018-07-26T05:36:33.441Z,10.27
2018-07-26T05:37:04.559Z,10.00
2018-07-26T05:37:35.751Z,10.07
2018-07-26T05:38:06.882Z,9.73
2018-07-26T05:38:38.045Z,10.00
2018-07-26T05:39:09.233Z,11.20
2018-07-26T05:39:40.400Z,11.07
2018-07-26T05:40:11.572Z,9.70
2018-07-26T05:40:42.694Z,12.30
2018-07-26T05:41:13.816Z,9.53
2018-07-26T05:41:45.053Z,10.47
2018-07-26T05:42:16.271Z,9.80
2018-07-26T05:42:47.486Z,10.63
2018-07-26T05:43:18.975Z,10.20
2018-07-26T05:43:50.096Z,9.60
2018-07-26T05:44:21.216Z,10.30
2018-07-26T05:44:52.341Z,10.50
2018-07-26T05:45:23.516Z,12.37
2018-07-26T05:45:55.768Z,11.10
2018-07-26T05:46:27.902Z,10.43
2018-07-26T05:46:59.117Z,10.37
2018-07-26T05:47:30.292Z,11.57
2018-07-26T05:48:01.473Z,10.60
2018-07-26T05:48:32.656Z,10.00
2018-07-26T05:49:03.850Z,10.20
2018-07-26T05:49:35.029Z,10.00
2018-07-26T05:50:06.277Z,9.73
2018-07-26T05:50:37.514Z,9.93
2018-07-26T05:51:08.648Z,9.83
2018-07-26T05:51:39.847Z,10.57
2018-07-26T05:52:11.076Z,10.70
2018-07-26T05:52:42.231Z,10.20
2018-07-26T05:53:13.408Z,10.23
2018-07-26T05:53:44.505Z,10.77
2018-07-26T05:54:15.680Z,10.10
2018-07-26T05:54:46.946Z,9.60
2018-07-26T05:55:18.147Z,9.53
2018-07-26T05:55:49.264Z,10.47
2018-07-26T05:56:20.380Z,10.33
2018-07-26T05:56:51.545Z,10.27
2018-07-26T05:57:22.675Z,10.57
2018-07-26T05:57:53.832Z,9.70
2018-07-26T05:58:25.004Z,10.13
2018-07-26T05:58:56.123Z,9.47
2018-07-26T05:59:27.361Z,9.77
2018-07-26T05:59:58.699Z,9.10
2018-07-26T06:00:29.804Z,10.50
2018-07-26T06:01:00.930Z,9.70
2018-07-26T06:01:32.056Z,10.37
2018-07-26T06:02:03.245Z,10.40
2018-07-26T06:02:34.463Z,10.17
2018-07-26T06:03:05.617Z,9.87
2018-07-26T06:03:36.799Z,10.03
2018-07-26T06:04:08.022Z,10.17
2018-07-26T06:04:39.225Z,9.30
2018-07-26T06:05:10.406Z,9.97
2018-07-26T06:05:41.584Z,10.23
2018-07-26T06:06:12.715Z,10.50
2018-07-26T06:06:43.844Z,10.03
2018-07-26T06:07:14.995Z,9.80
2018-07-26T06:07:46.127Z,9.90
2018-07-26T06:08:17.320Z,10.20
2018-07-26T06:08:48.481Z,10.47
2018-07-26T06:09:19.673Z,10.60
2018-07-26T06:09:50.855Z,9.63
2018-07-26T06:10:22.054Z,9.97
2018-07-26T06:10:53.219Z,9.37
2018-07-26T06:11:24.409Z,10.00
2018-07-26T06:11:55.520Z,9.77
2018-07-26T06:12:26.736Z,10.87
2018-07-26T06:12:57.882Z,10.33
2018-07-26T06:13:29.632Z,10.33
2018-07-26T06:14:00.821Z,9.97
2018-07-26T06:14:31.953Z,9.53
2018-07-26T06:15:03.117Z,10.23
2018-07-26T06:15:34.244Z,10.93
2018-07-26T06:16:05.429Z,10.23
2018-07-26T06:16:36.583Z,10.17
2018-07-26T06:17:07.717Z,9.97
2018-07-26T06:17:38.864Z,10.40
2018-07-26T06:18:10.006Z,10.23
2018-07-26T06:18:41.206Z,9.90
2018-07-26T06:19:12.453Z,9.80
2018-07-26T06:19:43.621Z,9.97
2018-07-26T06:20:14.803Z,9.80
2018-07-26T06:20:46.067Z,10.03
2018-07-26T06:21:17.260Z,10.30
2018-07-26T06:21:48.523Z,10.23
2018-07-26T06:22:19.904Z,10.33
2018-07-26T06:22:51.308Z,10.27
2018-07-26T06:23:22.497Z,10.40
2018-07-26T06:23:54.586Z,10.57
2018-07-26T06:24:25.825Z,9.53
2018-07-26T06:24:57.030Z,10.10
2018-07-26T06:25:28.244Z,10.40
2018-07-26T06:25:59.596Z,10.40
2018-07-26T06:26:30.744Z,10.63
2018-07-26T06:27:01.989Z,9.87
2018-07-26T06:27:33.163Z,10.13
2018-07-26T06:28:04.572Z,10.80
2018-07-26T06:28:35.532Z,10.37
2018-07-26T06:29:06.718Z,9.27
2018-07-26T06:29:37.896Z,10.57
2018-07-26T06:30:09.076Z,10.20
2018-07-26T06:30:40.430Z,10.17
2018-07-26T06:31:11.551Z,10.87
2018-07-26T06:31:42.675Z,10.47
2018-07-26T06:32:13.881Z,9.27
2018-07-26T06:32:45.057Z,10.10
2018-07-26T06:33:16.290Z,10.40
2018-07-26T06:33:47.506Z,10.40
2018-07-26T06:34:18.581Z,10.20
2018-07-26T06:34:49.759Z,10.50
2018-07-26T06:35:20.936Z,9.97
2018-07-26T06:35:52.099Z,9.90
2018-07-26T06:36:23.277Z,10.67
2018-07-26T06:36:54.458Z,10.23
2018-07-26T06:37:25.656Z,9.93
2018-07-26T06:37:56.843Z,9.63
2018-07-26T06:38:27.959Z,9.87
2018-07-26T06:38:59.151Z,10.40
2018-07-26T06:39:30.386Z,10.20
2018-07-26T06:40:01.552Z,10.23
2018-07-26T06:40:32.736Z,10.47
2018-07-26T06:41:03.933Z,9.63
2018-07-26T06:41:35.253Z,10.03
2018-07-26T06:42:06.446Z,10.70
2018-07-26T06:42:37.681Z,9.97
2018-07-26T06:43:08.796Z,10.07
2018-07-26T06:43:39.930Z,10.40
2018-07-26T06:44:11.126Z,10.77
2018-07-26T06:44:42.241Z,10.07
2018-07-26T06:45:13.364Z,10.10
2018-07-26T06:45:44.550Z,10.70